Ostatnio dodane

Tytuł Autor Odpowiedzi Last Postikona sortowania Odsłon łącznie Odsłon dzisiaj
Sterownik świateł do samochodu - jak podać sygnały na mikrokontroler? mareks6 22 2014-10-28 17:09 4 040 2 348
Atmega fusebit doctor Łukasz 4 2014-10-07 10:09 9 994 3 566
USBasp problem z programowaniem Eagle 8 2014-10-05 05:49 4 929 1 831
Bascom - Sterowanie wyjściami z impulsatora? Mirix 7 2014-10-01 15:49 4 618 2 654
RFM12B - łatwiejsze niż myślisz EDC 2014-09-15 00:56 5 909 3 425
Przerywacz kierunkowskazów APE 13A - nie działa poprawnie po naprawie Motorpal 2 2014-09-11 13:26 2 426 1 640
Cyfrowy Przedwzmacniacz mirley 102 2014-08-28 21:21 41 917 10 997
Sterownik C.O. z monitoringiem EDC 3 2014-08-27 16:35 3 246 1 964
AVR Odtwarzacz wav demsy1 2 2014-08-16 12:42 2 337 1 538
problem ze wzmacniaczem na Tda 1905 Misiek 6 2014-08-09 20:52 12 009 2 522
Timer+pomiar temperatury marekszy 14 2014-07-19 20:50 2 635 1 699
Przetwornik ADC maro 7 2014-07-16 10:11 2 809 1 732
Mirley.net Uruchomiona mirley 2014-07-16 08:05 3 234 1 968
Przerwanie operacji WAIT bascom barni 1 2014-07-10 14:08 2 762 1 809
Nowy soft przez USB/RS232 czyli BOOTLOADER EDC 13 2014-07-03 08:34 5 458 3 554
Zapis i odczyt do eeprom demsy1 6 2014-06-27 11:35 2 871 1 843
Regulator PWM DC 15A Chester 15 2014-06-25 18:00 5 201 2 967
AVT1460 Chester 2 2014-06-25 17:57 2 270 1 477
Bascom-PWM nanab 88 2014-06-24 05:21 38 113 8 658
Przerwania INT0 i INT1 jacek1987-1987 21 2014-06-22 22:04 4 590 2 797
Zwiększenie zasięgu działania czujnika na fototranzystorze i diodzie IR jacek1987-1987 17 2014-06-17 22:46 4 595 2 984
Big Endian w atmega32 wchpikus 2 2014-06-14 11:57 3 432 2 064
Modyfikacja kierownicy PC MSideWinder FFB (pomysły) Radzioo 5 2014-06-13 18:15 5 587 3 354
termometr_uniwersalny wersja na 2051 kaktus 4 2014-06-07 16:29 4 231 1 580
libs description w Eagle kaktus 1 2014-06-07 16:12 3 403 2 113